Time;durP1;ratioP1;P1;durP2;ratioP2;P2;SDS_P1;SDS_P2;PMS_P1;PMS_P2;Temp;Humidity;BMP_temperature;BMP_pressure;BME280_temperature;BME280_humidity;BME280_pressure;Samples;Min_cycle;Max_cycle;Signal;HPM_P1;HPM_P2
2021/12/02 00:01:04;;;;;;;0.00;0.00;;;;;;;;;;4946337;28;20207;-73
2021/12/02 00:03:34;;;;;;;0.00;0.00;;;;;;;;;;4948908;28;20678;-74
2021/12/02 00:06:01;;;;;;;0.00;0.00;;;;;;;;;;4942683;28;20309;-74
2021/12/02 00:08:28;;;;;;;0.00;0.00;;;;;;;;;;4945050;28;20217;-74
2021/12/02 00:10:56;;;;;;;0.00;0.00;;;;;;;;;;4942851;28;20206;-74
2021/12/02 00:13:25;;;;;;;0.00;0.00;;;;;;;;;;4945902;28;20199;-73
2021/12/02 00:15:56;;;;;;;0.00;0.00;;;;;;;;;;4941281;28;20656;-74
2021/12/02 00:21:20;;;;;;;0.00;0.00;;;;;;;;;;4883462;28;20209;-72
2021/12/02 00:23:51;;;;;;;0.00;0.00;;;;;;;;;;4946481;28;20194;-74
2021/12/02 00:26:20;;;;;;;0.00;0.00;;;;;;;;;;4947073;28;20741;-73
2021/12/02 00:28:51;;;;;;;0.00;0.00;;;;;;;;;;4941550;28;20682;-75
2021/12/02 00:31:21;;;;;;;0.00;0.00;;;;;;;;;;4942952;28;21661;-73
2021/12/02 00:33:50;;;;;;;0.00;0.00;;;;;;;;;;4947052;28;20211;-73
2021/12/02 00:36:19;;;;;;;0.00;0.00;;;;;;;;;;4944184;28;20215;-73
2021/12/02 00:38:47;;;;;;;0.00;0.00;;;;;;;;;;4939436;28;20211;-73
2021/12/02 00:41:15;;;;;;;0.00;0.00;;;;;;;;;;4947810;28;20225;-73
2021/12/02 00:43:43;;;;;;;0.00;0.00;;;;;;;;;;4943079;28;20334;-74
2021/12/02 00:46:12;;;;;;;0.00;0.00;;;;;;;;;;4945385;28;20245;-74
2021/12/02 00:48:40;;;;;;;0.00;0.00;;;;;;;;;;4943899;28;20594;-73
2021/12/02 00:51:08;;;;;;;0.00;0.00;;;;;;;;;;4945481;28;20289;-73
2021/12/02 00:53:38;;;;;;;0.00;0.00;;;;;;;;;;4950027;28;21667;-74
2021/12/02 00:56:07;;;;;;;0.00;0.00;;;;;;;;;;4944370;28;20344;-73
2021/12/02 00:58:35;;;;;;;0.00;0.00;;;;;;;;;;4946037;28;20210;-74
2021/12/02 01:01:03;;;;;;;0.00;0.00;;;;;;;;;;4945025;28;22017;-74
2021/12/02 01:03:34;;;;;;;3.40;0.87;;;;;;;;;;4950239;28;20680;-74
2021/12/02 01:06:02;;;;;;;0.10;0.10;;;;;;;;;;4946512;28;20233;-74
2021/12/02 01:08:29;;;;;;;1.30;0.20;;;;;;;;;;4944011;28;21169;-73
2021/12/02 01:10:58;;;;;;;1.07;0.53;;;;;;;;;;4947334;28;20201;-74
2021/12/02 01:13:26;;;;;;;0.20;0.10;;;;;;;;;;4949675;28;20218;-74
2021/12/02 01:15:53;;;;;;;0.00;0.00;;;;;;;;;;4946116;28;20225;-74
2021/12/02 01:18:22;;;;;;;0.00;0.00;;;;;;;;;;4950569;28;20858;-74
2021/12/02 01:20:50;;;;;;;0.87;0.40;;;;;;;;;;4945808;28;20611;-74
2021/12/02 01:23:19;;;;;;;0.00;0.00;;;;;;;;;;4945568;28;20203;-74
2021/12/02 01:28:51;;;;;;;0.00;0.00;;;;;;;;;;4947684;28;20201;-74
2021/12/02 01:31:19;;;;;;;0.00;0.00;;;;;;;;;;4951323;28;20253;-74
2021/12/02 01:33:47;;;;;;;0.00;0.00;;;;;;;;;;4954599;28;20563;-74
2021/12/02 01:36:16;;;;;;;0.00;0.00;;;;;;;;;;4951331;28;20210;-72
2021/12/02 01:38:43;;;;;;;0.00;0.00;;;;;;;;;;4955562;28;20202;-73
2021/12/02 01:41:10;;;;;;;0.00;0.00;;;;;;;;;;4948016;28;20218;-74
2021/12/02 01:43:47;;;;;;;0.00;0.00;;;;;;;;;;4949398;28;20216;-73
2021/12/02 01:46:17;;;;;;;0.00;0.00;;;;;;;;;;4948744;28;20737;-73
2021/12/02 01:48:48;;;;;;;0.00;0.00;;;;;;;;;;4949042;28;20755;-73
2021/12/02 01:51:19;;;;;;;0.57;0.30;;;;;;;;;;4949687;28;20219;-73
2021/12/02 01:53:50;;;;;;;0.93;0.33;;;;;;;;;;4947385;28;20206;-73
2021/12/02 01:56:18;;;;;;;0.47;0.07;;;;;;;;;;4947417;28;20583;-74
2021/12/02 01:58:47;;;;;;;0.00;0.00;;;;;;;;;;4950228;28;20298;-73
2021/12/02 02:01:18;;;;;;;0.00;0.00;;;;;;;;;;4946320;28;22073;-74
2021/12/02 02:03:45;;;;;;;0.00;0.00;;;;;;;;;;4948433;28;20214;-73
2021/12/02 02:06:16;;;;;;;0.00;0.00;;;;;;;;;;4951378;28;20326;-74
2021/12/02 02:08:47;;;;;;;0.00;0.00;;;;;;;;;;4949624;28;20250;-74
2021/12/02 02:11:15;;;;;;;0.00;0.00;;;;;;;;;;4940527;28;20273;-74
2021/12/02 02:13:43;;;;;;;0.00;0.00;;;;;;;;;;4949404;28;20197;-74
2021/12/02 02:16:11;;;;;;;0.00;0.00;;;;;;;;;;4945701;28;20751;-74
2021/12/02 02:18:41;;;;;;;0.00;0.00;;;;;;;;;;4943920;28;20211;-75
2021/12/02 02:21:13;;;;;;;0.00;0.00;;;;;;;;;;4937373;28;20239;-74
2021/12/02 02:23:46;;;;;;;0.00;0.00;;;;;;;;;;4943231;28;20195;-74
2021/12/02 02:26:14;;;;;;;0.00;0.00;;;;;;;;;;4941898;28;21674;-75
2021/12/02 02:28:42;;;;;;;0.00;0.00;;;;;;;;;;4942803;28;20214;-74
2021/12/02 02:31:09;;;;;;;0.00;0.00;;;;;;;;;;4939762;28;21627;-75
2021/12/02 02:33:38;;;;;;;0.93;0.23;;;;;;;;;;4941319;28;20858;-74
2021/12/02 02:36:07;;;;;;;0.00;0.00;;;;;;;;;;4943996;28;20199;-75
2021/12/02 02:38:37;;;;;;;0.00;0.00;;;;;;;;;;4940478;28;20214;-74
2021/12/02 02:41:07;;;;;;;0.00;0.00;;;;;;;;;;4941322;28;20203;-75
2021/12/02 02:43:34;;;;;;;0.00;0.00;;;;;;;;;;4942214;28;20238;-74
2021/12/02 02:46:03;;;;;;;0.00;0.00;;;;;;;;;;4949491;28;20636;-74
2021/12/02 02:48:31;;;;;;;0.00;0.00;;;;;;;;;;4946388;28;20222;-74
2021/12/02 02:50:59;;;;;;;0.00;0.00;;;;;;;;;;4937291;28;20231;-75
2021/12/02 02:53:26;;;;;;;0.00;0.00;;;;;;;;;;4938193;28;20203;-75
2021/12/02 02:56:07;;;;;;;0.00;0.00;;;;;;;;;;4942503;28;20211;-75
2021/12/02 02:58:46;;;;;;;0.00;0.00;;;;;;;;;;4943438;28;20203;-75
2021/12/02 03:01:27;;;;;;;0.00;0.00;;;;;;;;;;4939980;28;21976;-74
2021/12/02 03:04:03;;;;;;;0.00;0.00;;;;;;;;;;4941678;28;20290;-74
2021/12/02 03:06:35;;;;;;;0.00;0.00;;;;;;;;;;4942051;28;20259;-74
2021/12/02 03:09:07;;;;;;;0.00;0.00;;;;;;;;;;4938912;28;20211;-73
2021/12/02 03:11:44;;;;;;;0.60;0.10;;;;;;;;;;4943538;28;20211;-74
2021/12/02 03:14:17;;;;;;;0.00;0.00;;;;;;;;;;4941884;28;20207;-73
2021/12/02 03:16:44;;;;;;;0.00;0.00;;;;;;;;;;4944601;28;20199;-73
2021/12/02 03:19:15;;;;;;;0.30;0.10;;;;;;;;;;4939262;28;20210;-74
2021/12/02 03:21:43;;;;;;;0.00;0.00;;;;;;;;;;4939249;28;20210;-74
2021/12/02 03:24:10;;;;;;;4.00;0.33;;;;;;;;;;4939159;28;20820;-74
2021/12/02 03:26:39;;;;;;;0.17;0.10;;;;;;;;;;4939583;28;20234;-74
2021/12/02 03:29:07;;;;;;;0.00;0.00;;;;;;;;;;4940642;28;20226;-73
2021/12/02 03:31:34;;;;;;;0.27;0.27;;;;;;;;;;4939481;28;20675;-74
2021/12/02 03:34:03;;;;;;;0.93;0.93;;;;;;;;;;4941533;28;20587;-74
2021/12/02 03:36:31;;;;;;;0.00;0.00;;;;;;;;;;4945023;28;20975;-73
2021/12/02 03:38:58;;;;;;;0.00;0.00;;;;;;;;;;4940361;28;20242;-74
2021/12/02 03:41:26;;;;;;;2.80;0.63;;;;;;;;;;4937056;28;20215;-74
2021/12/02 03:43:55;;;;;;;0.00;0.00;;;;;;;;;;4939166;28;20199;-73
2021/12/02 03:46:24;;;;;;;0.00;0.00;;;;;;;;;;4938622;28;20214;-74
2021/12/02 03:48:52;;;;;;;0.00;0.00;;;;;;;;;;4935766;28;20297;-73
2021/12/02 03:51:20;;;;;;;0.00;0.00;;;;;;;;;;4937728;28;20215;-74
2021/12/02 03:53:48;;;;;;;0.10;0.10;;;;;;;;;;4935927;28;20194;-74
2021/12/02 03:56:15;;;;;;;0.00;0.00;;;;;;;;;;4934206;28;21024;-74
2021/12/02 03:58:43;;;;;;;0.00;0.00;;;;;;;;;;4934033;28;20198;-74
2021/12/02 04:01:13;;;;;;;0.67;0.30;;;;;;;;;;4941835;28;20419;-74
2021/12/02 04:03:40;;;;;;;0.00;0.00;;;;;;;;;;4944478;28;20309;-74
2021/12/02 04:06:08;;;;;;;0.00;0.00;;;;;;;;;;4944144;28;20739;-73
2021/12/02 04:08:42;;;;;;;0.00;0.00;;;;;;;;;;4941632;28;20222;-74
2021/12/02 04:11:20;;;;;;;0.00;0.00;;;;;;;;;;4945492;28;20297;-76
2021/12/02 04:13:57;;;;;;;0.00;0.00;;;;;;;;;;4944608;28;20210;-76
2021/12/02 04:16:27;;;;;;;0.00;0.00;;;;;;;;;;4941686;28;20210;-74
2021/12/02 04:18:55;;;;;;;0.00;0.00;;;;;;;;;;4943098;28;20204;-74
2021/12/02 04:21:22;;;;;;;0.00;0.00;;;;;;;;;;4947326;28;20679;-74
2021/12/02 04:23:50;;;;;;;0.10;0.10;;;;;;;;;;4948985;28;20215;-74
2021/12/02 04:26:17;;;;;;;0.00;0.00;;;;;;;;;;4943903;28;20212;-74
2021/12/02 04:28:44;;;;;;;0.13;0.00;;;;;;;;;;4945029;28;20225;-74
2021/12/02 04:31:12;;;;;;;3.30;0.30;;;;;;;;;;4944096;28;20226;-75
2021/12/02 04:33:41;;;;;;;0.00;0.00;;;;;;;;;;4947922;28;20198;-74
2021/12/02 04:36:09;;;;;;;0.00;0.00;;;;;;;;;;4945105;28;20210;-75
2021/12/02 04:38:36;;;;;;;0.00;0.00;;;;;;;;;;4944974;28;20206;-74
2021/12/02 04:41:03;;;;;;;0.00;0.00;;;;;;;;;;4942594;28;20194;-74
2021/12/02 04:43:31;;;;;;;0.00;0.00;;;;;;;;;;4947866;28;20203;-74
2021/12/02 04:45:58;;;;;;;0.00;0.00;;;;;;;;;;4942515;28;20672;-74
2021/12/02 04:48:26;;;;;;;0.00;0.00;;;;;;;;;;4944550;28;20225;-74
2021/12/02 04:50:54;;;;;;;0.00;0.00;;;;;;;;;;4940914;28;20219;-74
2021/12/02 04:53:22;;;;;;;0.00;0.00;;;;;;;;;;4943263;28;20198;-74
2021/12/02 04:55:49;;;;;;;0.00;0.00;;;;;;;;;;4939204;28;20199;-75
2021/12/02 04:58:17;;;;;;;0.00;0.00;;;;;;;;;;4942560;28;20230;-74
2021/12/02 05:00:44;;;;;;;0.00;0.00;;;;;;;;;;4946510;28;20211;-74
2021/12/02 05:03:12;;;;;;;0.00;0.00;;;;;;;;;;4941369;28;20218;-74
2021/12/02 05:05:39;;;;;;;0.00;0.00;;;;;;;;;;4946448;28;20587;-74
2021/12/02 05:08:08;;;;;;;0.00;0.00;;;;;;;;;;4948210;28;20241;-73
2021/12/02 05:10:35;;;;;;;0.00;0.00;;;;;;;;;;4944978;28;20689;-74
2021/12/02 05:13:03;;;;;;;0.00;0.00;;;;;;;;;;4942899;28;20202;-74
2021/12/02 05:15:30;;;;;;;0.00;0.00;;;;;;;;;;4940341;28;20215;-74
2021/12/02 05:17:58;;;;;;;0.00;0.00;;;;;;;;;;4943810;28;20199;-74
2021/12/02 05:20:25;;;;;;;0.03;0.03;;;;;;;;;;4942998;28;20208;-73
2021/12/02 05:22:53;;;;;;;0.00;0.00;;;;;;;;;;4940951;28;20219;-74
2021/12/02 05:25:22;;;;;;;0.30;0.20;;;;;;;;;;4947194;28;20230;-74
2021/12/02 05:27:49;;;;;;;0.00;0.00;;;;;;;;;;4951157;28;20214;-74
2021/12/02 05:30:16;;;;;;;0.00;0.00;;;;;;;;;;4944039;28;20246;-74
2021/12/02 05:32:44;;;;;;;0.00;0.00;;;;;;;;;;4941913;28;20207;-74
2021/12/02 05:35:12;;;;;;;0.00;0.00;;;;;;;;;;4947797;28;20234;-75
2021/12/02 05:37:39;;;;;;;1.87;0.67;;;;;;;;;;4944465;28;20201;-75
2021/12/02 05:40:07;;;;;;;0.00;0.00;;;;;;;;;;4940503;28;20218;-74
2021/12/02 05:42:37;;;;;;;0.20;0.10;;;;;;;;;;4944539;28;20306;-74
2021/12/02 05:45:05;;;;;;;0.00;0.00;;;;;;;;;;4942626;28;20234;-74
2021/12/02 05:47:32;;;;;;;0.00;0.00;;;;;;;;;;4941222;28;20230;-75
2021/12/02 05:50:00;;;;;;;0.00;0.00;;;;;;;;;;4946451;28;20215;-74
2021/12/02 05:52:27;;;;;;;0.00;0.00;;;;;;;;;;4949704;28;20223;-74
2021/12/02 05:54:54;;;;;;;0.00;0.00;;;;;;;;;;4948167;28;20809;-73
2021/12/02 05:57:22;;;;;;;0.00;0.00;;;;;;;;;;4949950;28;20217;-74
2021/12/02 05:59:51;;;;;;;0.00;0.00;;;;;;;;;;4945768;28;20203;-74
2021/12/02 06:02:19;;;;;;;0.00;0.00;;;;;;;;;;4946475;28;20218;-73
2021/12/02 06:04:50;;;;;;;0.00;0.00;;;;;;;;;;4948145;28;20286;-74
2021/12/02 06:07:18;;;;;;;0.00;0.00;;;;;;;;;;4947972;28;20214;-74
2021/12/02 06:09:46;;;;;;;0.00;0.00;;;;;;;;;;4950665;28;20286;-74
2021/12/02 06:12:13;;;;;;;0.00;0.00;;;;;;;;;;4946562;28;20211;-75
2021/12/02 06:14:41;;;;;;;0.00;0.00;;;;;;;;;;4944518;28;20686;-75
2021/12/02 06:17:11;;;;;;;0.00;0.00;;;;;;;;;;4948052;28;20234;-76
2021/12/02 06:19:38;;;;;;;0.00;0.00;;;;;;;;;;4947941;28;20211;-74
2021/12/02 06:22:08;;;;;;;0.00;0.00;;;;;;;;;;4944797;28;20590;-75
2021/12/02 06:24:43;;;;;;;0.00;0.00;;;;;;;;;;4948001;28;20953;-74
2021/12/02 06:27:11;;;;;;;0.10;0.10;;;;;;;;;;4945640;28;20214;-75
2021/12/02 06:29:38;;;;;;;0.00;0.00;;;;;;;;;;4946782;28;20235;-75
2021/12/02 06:32:07;;;;;;;0.07;0.07;;;;;;;;;;4945008;28;20204;-74
2021/12/02 06:34:36;;;;;;;0.00;0.00;;;;;;;;;;4945439;28;20672;-74
2021/12/02 06:37:03;;;;;;;0.00;0.00;;;;;;;;;;4950341;28;20207;-74
2021/12/02 06:39:31;;;;;;;0.00;0.00;;;;;;;;;;4946423;28;20517;-74
2021/12/02 06:41:58;;;;;;;0.00;0.00;;;;;;;;;;4950081;28;20190;-74
2021/12/02 06:44:27;;;;;;;0.00;0.00;;;;;;;;;;4945842;28;21003;-74
2021/12/02 06:46:55;;;;;;;0.00;0.00;;;;;;;;;;4945807;28;20214;-74
2021/12/02 06:49:23;;;;;;;0.00;0.00;;;;;;;;;;4953658;28;20271;-75
2021/12/02 06:51:52;;;;;;;0.00;0.00;;;;;;;;;;4945257;28;20723;-74
2021/12/02 06:54:20;;;;;;;0.00;0.00;;;;;;;;;;4943507;28;21255;-74
2021/12/02 06:56:48;;;;;;;0.00;0.00;;;;;;;;;;4949296;28;20235;-73
2021/12/02 06:59:15;;;;;;;0.00;0.00;;;;;;;;;;4948374;28;20206;-73
2021/12/02 07:01:43;;;;;;;0.00;0.00;;;;;;;;;;4942856;28;20211;-74
2021/12/02 07:04:10;;;;;;;0.00;0.00;;;;;;;;;;4943150;28;21450;-72
2021/12/02 07:06:39;;;;;;;0.00;0.00;;;;;;;;;;4947106;28;20207;-73
2021/12/02 07:09:08;;;;;;;0.07;0.07;;;;;;;;;;4948731;28;20235;-73
2021/12/02 07:11:36;;;;;;;0.10;0.10;;;;;;;;;;4942803;28;20203;-74
2021/12/02 07:14:06;;;;;;;0.00;0.00;;;;;;;;;;4949338;28;20285;-74
2021/12/02 07:16:33;;;;;;;0.00;0.00;;;;;;;;;;4942759;28;20675;-74
2021/12/02 07:19:01;;;;;;;0.87;0.87;;;;;;;;;;4942820;28;20202;-74
2021/12/02 07:21:28;;;;;;;0.00;0.00;;;;;;;;;;4947254;28;20217;-74
2021/12/02 07:23:56;;;;;;;0.20;0.20;;;;;;;;;;4947822;28;20565;-74
2021/12/02 07:26:24;;;;;;;0.43;0.10;;;;;;;;;;4945951;28;20293;-75
2021/12/02 07:28:52;;;;;;;0.00;0.00;;;;;;;;;;4949491;28;20641;-76
2021/12/02 07:31:21;;;;;;;0.00;0.00;;;;;;;;;;4945321;28;20725;-76
2021/12/02 07:33:49;;;;;;;0.00;0.00;;;;;;;;;;4949758;28;20258;-76
2021/12/02 07:36:17;;;;;;;0.00;0.00;;;;;;;;;;4944950;28;20698;-75
2021/12/02 07:38:45;;;;;;;0.10;0.10;;;;;;;;;;4943099;28;20667;-75
2021/12/02 07:41:12;;;;;;;3.50;1.80;;;;;;;;;;4947719;28;20877;-75
2021/12/02 07:43:41;;;;;;;0.00;0.00;;;;;;;;;;4948999;28;20241;-74
2021/12/02 07:46:09;;;;;;;0.00;0.00;;;;;;;;;;4948689;28;20203;-74
2021/12/02 07:48:37;;;;;;;0.13;0.13;;;;;;;;;;4945755;28;20724;-74
2021/12/02 07:51:09;;;;;;;0.10;0.10;;;;;;;;;;4941202;28;20207;-74
2021/12/02 07:53:37;;;;;;;0.90;0.40;;;;;;;;;;4941893;28;20218;-75
2021/12/02 07:56:05;;;;;;;0.00;0.00;;;;;;;;;;4940318;28;20209;-75
2021/12/02 07:58:33;;;;;;;0.80;0.63;;;;;;;;;;4939323;28;20209;-73
2021/12/02 08:01:04;;;;;;;0.00;0.00;;;;;;;;;;4939223;28;20210;-73
2021/12/02 08:03:31;;;;;;;0.00;0.00;;;;;;;;;;4938973;28;20203;-75
2021/12/02 08:05:58;;;;;;;1.13;1.13;;;;;;;;;;4941305;28;20215;-74
2021/12/02 08:08:26;;;;;;;0.00;0.00;;;;;;;;;;4941978;28;20227;-74
2021/12/02 08:10:53;;;;;;;0.43;0.43;;;;;;;;;;4935359;28;20210;-73
2021/12/02 08:13:28;;;;;;;0.00;0.00;;;;;;;;;;4935471;28;20210;-74
2021/12/02 08:15:55;;;;;;;0.00;0.00;;;;;;;;;;4942759;28;20987;-74
2021/12/02 08:18:24;;;;;;;0.63;0.63;;;;;;;;;;4942456;28;20203;-75
2021/12/02 08:20:53;;;;;;;0.00;0.00;;;;;;;;;;4941138;28;20206;-74
2021/12/02 08:23:21;;;;;;;0.00;0.00;;;;;;;;;;4948307;28;20261;-72
2021/12/02 08:25:48;;;;;;;0.00;0.00;;;;;;;;;;4946511;28;20199;-74
2021/12/02 08:28:16;;;;;;;0.17;0.10;;;;;;;;;;4940832;28;20230;-74
2021/12/02 08:30:44;;;;;;;0.00;0.00;;;;;;;;;;4946078;28;20245;-75
2021/12/02 08:33:13;;;;;;;3.73;0.40;;;;;;;;;;4945119;28;20194;-74
2021/12/02 08:35:42;;;;;;;0.00;0.00;;;;;;;;;;4946266;28;20575;-75
2021/12/02 08:38:11;;;;;;;0.00;0.00;;;;;;;;;;4947794;28;20215;-75
2021/12/02 08:40:39;;;;;;;0.00;0.00;;;;;;;;;;4947485;28;20215;-75
2021/12/02 08:43:07;;;;;;;0.00;0.00;;;;;;;;;;4944005;28;20212;-74
2021/12/02 08:45:36;;;;;;;0.00;0.00;;;;;;;;;;4945490;28;20608;-74
2021/12/02 08:48:04;;;;;;;0.00;0.00;;;;;;;;;;4946291;28;20198;-75
2021/12/02 08:50:32;;;;;;;0.00;0.00;;;;;;;;;;4943569;28;20218;-74
2021/12/02 08:53:01;;;;;;;0.00;0.00;;;;;;;;;;4944158;28;20207;-76
2021/12/02 08:55:30;;;;;;;0.97;0.43;;;;;;;;;;4950250;28;20203;-77
2021/12/02 08:57:58;;;;;;;0.00;0.00;;;;;;;;;;4948846;28;20226;-76
2021/12/02 09:00:27;;;;;;;0.00;0.00;;;;;;;;;;4942515;28;20221;-76
2021/12/02 09:02:55;;;;;;;0.00;0.00;;;;;;;;;;4950908;28;20209;-76
2021/12/02 09:05:22;;;;;;;0.00;0.00;;;;;;;;;;4940934;28;20199;-75
2021/12/02 09:07:50;;;;;;;0.00;0.00;;;;;;;;;;4948505;28;20214;-76
2021/12/02 09:10:21;;;;;;;0.00;0.00;;;;;;;;;;4949119;28;20231;-75
2021/12/02 09:12:48;;;;;;;0.00;0.00;;;;;;;;;;4948772;28;20225;-75
2021/12/02 09:15:16;;;;;;;0.00;0.00;;;;;;;;;;4946012;28;20612;-73
2021/12/02 09:17:44;;;;;;;0.00;0.00;;;;;;;;;;4941258;28;21497;-74
2021/12/02 09:20:14;;;;;;;0.00;0.00;;;;;;;;;;4938398;28;20210;-74
2021/12/02 09:22:43;;;;;;;0.00;0.00;;;;;;;;;;4945557;28;20211;-75
2021/12/02 09:25:11;;;;;;;0.00;0.00;;;;;;;;;;4946191;28;20207;-77
2021/12/02 09:27:39;;;;;;;0.00;0.00;;;;;;;;;;4948652;28;20217;-75
2021/12/02 09:30:08;;;;;;;0.00;0.00;;;;;;;;;;4946212;28;20239;-75
2021/12/02 09:32:36;;;;;;;0.00;0.00;;;;;;;;;;4951229;28;20215;-76
2021/12/02 09:35:04;;;;;;;0.10;0.00;;;;;;;;;;4949923;28;20207;-75
2021/12/02 09:37:31;;;;;;;0.00;0.00;;;;;;;;;;4951301;28;20211;-76
2021/12/02 09:39:59;;;;;;;0.00;0.00;;;;;;;;;;4951524;28;20648;-74
2021/12/02 09:42:27;;;;;;;0.00;0.00;;;;;;;;;;4951859;28;20211;-74
2021/12/02 09:44:59;;;;;;;0.00;0.00;;;;;;;;;;4944888;28;20211;-74
2021/12/02 09:47:28;;;;;;;0.00;0.00;;;;;;;;;;4948257;28;20207;-74
2021/12/02 09:49:58;;;;;;;0.00;0.00;;;;;;;;;;4944128;28;20250;-75
2021/12/02 09:52:33;;;;;;;0.00;0.00;;;;;;;;;;4946720;28;20565;-75
2021/12/02 09:55:04;;;;;;;0.00;0.00;;;;;;;;;;4946009;28;20217;-72
2021/12/02 09:57:37;;;;;;;0.00;0.00;;;;;;;;;;4944310;28;22083;-74
2021/12/02 10:00:07;;;;;;;0.00;0.00;;;;;;;;;;4947158;28;20294;-74
2021/12/02 10:02:42;;;;;;;0.00;0.00;;;;;;;;;;4946680;28;20755;-73
2021/12/02 10:05:13;;;;;;;0.00;0.00;;;;;;;;;;4947315;28;20216;-74
2021/12/02 10:07:53;;;;;;;0.00;0.00;;;;;;;;;;4944731;28;20565;-73
2021/12/02 10:10:29;;;;;;;0.00;0.00;;;;;;;;;;4942933;28;20266;-73
2021/12/02 10:13:11;;;;;;;0.00;0.00;;;;;;;;;;4947419;28;20215;-74
2021/12/02 10:15:49;;;;;;;0.00;0.00;;;;;;;;;;4950246;28;20225;-73
2021/12/02 10:18:17;;;;;;;0.00;0.00;;;;;;;;;;4948707;28;20206;-73
2021/12/02 10:20:49;;;;;;;0.00;0.00;;;;;;;;;;4944452;28;20217;-73
2021/12/02 10:23:19;;;;;;;0.00;0.00;;;;;;;;;;4947736;28;21483;-72
2021/12/02 10:25:48;;;;;;;0.00;0.00;;;;;;;;;;4947691;28;20206;-72
2021/12/02 10:28:16;;;;;;;0.00;0.00;;;;;;;;;;4945714;28;20218;-72
2021/12/02 10:30:46;;;;;;;0.00;0.00;;;;;;;;;;4948474;28;20245;-71
2021/12/02 10:33:14;;;;;;;0.00;0.00;;;;;;;;;;4950594;28;20214;-72
2021/12/02 10:35:42;;;;;;;0.00;0.00;;;;;;;;;;4946133;28;20213;-72
2021/12/02 10:38:32;;;;;;;0.00;0.00;;;;;;;;;;4944844;28;20211;-75
2021/12/02 10:41:00;;;;;;;0.00;0.00;;;;;;;;;;4947253;28;20222;-73
2021/12/02 10:43:27;;;;;;;0.00;0.00;;;;;;;;;;4947488;28;20199;-72
2021/12/02 10:46:13;;;;;;;0.00;0.00;;;;;;;;;;4945718;28;20211;-76
2021/12/02 10:48:50;;;;;;;0.00;0.00;;;;;;;;;;4956655;28;20206;-72
2021/12/02 10:51:35;;;;;;;0.00;0.00;;;;;;;;;;4963935;28;20213;-74
2021/12/02 10:54:03;;;;;;;0.00;0.00;;;;;;;;;;4945119;28;20210;-77
2021/12/02 10:56:34;;;;;;;0.00;0.00;;;;;;;;;;4943283;28;20247;-75
2021/12/02 10:59:16;;;;;;;0.00;0.00;;;;;;;;;;4951803;28;20209;-73
2021/12/02 11:01:45;;;;;;;0.00;0.00;;;;;;;;;;4951008;28;20199;-74
2021/12/02 11:04:13;;;;;;;0.10;0.10;;;;;;;;;;4970519;28;20209;-71
2021/12/02 11:06:44;;;;;;;0.00;0.00;;;;;;;;;;4954133;28;20250;-74
2021/12/02 11:09:25;;;;;;;0.00;0.00;;;;;;;;;;4946974;28;20576;-74
2021/12/02 11:12:08;;;;;;;0.00;0.00;;;;;;;;;;4948710;28;20608;-74
2021/12/02 11:14:35;;;;;;;0.00;0.00;;;;;;;;;;4949481;28;20207;-74
2021/12/02 11:17:12;;;;;;;0.00;0.00;;;;;;;;;;4945934;28;20879;-73
2021/12/02 11:19:40;;;;;;;0.00;0.00;;;;;;;;;;4947343;28;20206;-76
2021/12/02 11:22:09;;;;;;;0.00;0.00;;;;;;;;;;4955520;28;20207;-73
2021/12/02 11:24:37;;;;;;;0.00;0.00;;;;;;;;;;4950398;28;20202;-73
2021/12/02 11:27:12;;;;;;;0.00;0.00;;;;;;;;;;4949856;28;20195;-74
2021/12/02 11:29:49;;;;;;;0.00;0.00;;;;;;;;;;4928151;28;20250;-73
2021/12/02 11:32:26;;;;;;;0.00;0.00;;;;;;;;;;4933217;28;20828;-74
2021/12/02 11:35:00;;;;;;;0.00;0.00;;;;;;;;;;4936011;28;20209;-73
2021/12/02 11:37:27;;;;;;;0.00;0.00;;;;;;;;;;4937095;28;20595;-75
2021/12/02 11:39:55;;;;;;;0.00;0.00;;;;;;;;;;4938349;28;20213;-73
2021/12/02 11:42:23;;;;;;;0.00;0.00;;;;;;;;;;4938820;28;20229;-76
2021/12/02 11:44:51;;;;;;;0.00;0.00;;;;;;;;;;4934366;28;21102;-74
2021/12/02 11:47:18;;;;;;;0.00;0.00;;;;;;;;;;4936094;28;20214;-75
2021/12/02 11:49:47;;;;;;;0.00;0.00;;;;;;;;;;4933825;28;20235;-73
2021/12/02 11:52:15;;;;;;;0.00;0.00;;;;;;;;;;4932117;28;22276;-73
2021/12/02 11:54:43;;;;;;;0.00;0.00;;;;;;;;;;4936374;28;20226;-75
2021/12/02 11:57:11;;;;;;;0.00;0.00;;;;;;;;;;4933490;28;20211;-76
2021/12/02 11:59:39;;;;;;;0.00;0.00;;;;;;;;;;4934442;28;20639;-74
2021/12/02 12:02:06;;;;;;;0.00;0.00;;;;;;;;;;4932619;28;20221;-76
2021/12/02 12:04:38;;;;;;;0.00;0.00;;;;;;;;;;4933904;28;20217;-73
2021/12/02 12:07:13;;;;;;;0.00;0.00;;;;;;;;;;4938214;28;20258;-76
2021/12/02 12:09:41;;;;;;;0.03;0.03;;;;;;;;;;4933954;28;20249;-79
2021/12/02 12:12:10;;;;;;;0.00;0.00;;;;;;;;;;4934949;28;20239;-75
2021/12/02 12:14:39;;;;;;;1.00;0.17;;;;;;;;;;4940346;28;20203;-76
2021/12/02 12:17:07;;;;;;;0.00;0.00;;;;;;;;;;4935078;28;20903;-75
2021/12/02 12:19:40;;;;;;;0.00;0.00;;;;;;;;;;4935059;28;20691;-73
2021/12/02 12:22:08;;;;;;;0.40;0.40;;;;;;;;;;4935094;28;20568;-73
2021/12/02 12:24:44;;;;;;;0.00;0.00;;;;;;;;;;4937862;28;20215;-76
2021/12/02 12:27:18;;;;;;;0.00;0.00;;;;;;;;;;4934264;28;20238;-75
2021/12/02 12:29:48;;;;;;;0.00;0.00;;;;;;;;;;4944234;28;20245;-75
2021/12/02 12:32:24;;;;;;;0.00;0.00;;;;;;;;;;4942078;28;20207;-74
2021/12/02 12:34:58;;;;;;;0.00;0.00;;;;;;;;;;4943971;28;20222;-77
2021/12/02 12:37:46;;;;;;;0.00;0.00;;;;;;;;;;4946307;28;20206;-76
2021/12/02 12:40:17;;;;;;;0.00;0.00;;;;;;;;;;4945005;28;20206;-76
2021/12/02 12:42:45;;;;;;;0.00;0.00;;;;;;;;;;4945046;28;20622;-76
2021/12/02 12:45:14;;;;;;;0.10;0.10;;;;;;;;;;4943293;28;20199;-75
2021/12/02 12:47:46;;;;;;;0.00;0.00;;;;;;;;;;4941120;28;20598;-76
2021/12/02 12:50:25;;;;;;;0.00;0.00;;;;;;;;;;4944086;28;20238;-75
2021/12/02 12:52:54;;;;;;;0.00;0.00;;;;;;;;;;4935951;28;20217;-76
2021/12/02 12:55:23;;;;;;;0.00;0.00;;;;;;;;;;4937551;28;20203;-75
2021/12/02 12:58:08;;;;;;;0.00;0.00;;;;;;;;;;4941004;28;20206;-74
2021/12/02 13:00:36;;;;;;;0.00;0.00;;;;;;;;;;4937651;28;20210;-76
2021/12/02 13:03:09;;;;;;;0.00;0.00;;;;;;;;;;4939596;28;20211;-77
2021/12/02 13:05:48;;;;;;;0.00;0.00;;;;;;;;;;4940213;28;20214;-75
2021/12/02 13:08:21;;;;;;;0.00;0.00;;;;;;;;;;4938769;28;20742;-76
2021/12/02 13:10:57;;;;;;;0.00;0.00;;;;;;;;;;4936099;28;20246;-73
2021/12/02 13:13:25;;;;;;;0.00;0.00;;;;;;;;;;4935319;28;20599;-74
2021/12/02 13:15:54;;;;;;;0.00;0.00;;;;;;;;;;4936933;28;20318;-73
2021/12/02 13:18:32;;;;;;;0.00;0.00;;;;;;;;;;4939533;28;20203;-73
2021/12/02 13:21:00;;;;;;;0.00;0.00;;;;;;;;;;4934189;28;20211;-78
2021/12/02 13:23:39;;;;;;;0.00;0.00;;;;;;;;;;5243668;23;20230;-66
2021/12/02 13:26:17;;;;;;;0.00;0.00;;;;;;;;;;4963248;28;20252;-65
2021/12/02 13:28:45;;;;;;;0.00;0.00;;;;;;;;;;4959582;28;20207;-66
2021/12/02 13:31:14;;;;;;;0.00;0.00;;;;;;;;;;4953448;28;20242;-66
2021/12/02 13:33:42;;;;;;;0.00;0.00;;;;;;;;;;4952166;28;20211;-67
2021/12/02 13:36:12;;;;;;;0.00;0.00;;;;;;;;;;4952758;28;20210;-67
2021/12/02 13:38:40;;;;;;;0.00;0.00;;;;;;;;;;4954146;28;20216;-65
2021/12/02 13:41:21;;;;;;;0.00;0.00;;;;;;;;;;4951313;28;20213;-66
2021/12/02 13:43:57;;;;;;;0.00;0.00;;;;;;;;;;4952644;28;20209;-67
2021/12/02 13:46:35;;;;;;;0.00;0.00;;;;;;;;;;4952104;28;20205;-69
2021/12/02 13:49:04;;;;;;;0.00;0.00;;;;;;;;;;4953929;28;20214;-65
2021/12/02 13:54:24;;;;;;;0.00;0.00;;;;;;;;;;4954355;28;20221;-66
2021/12/02 13:56:54;;;;;;;0.00;0.00;;;;;;;;;;4961335;28;20750;-65
2021/12/02 13:59:24;;;;;;;0.00;0.00;;;;;;;;;;4951465;28;20242;-66
2021/12/02 14:01:53;;;;;;;0.00;0.00;;;;;;;;;;4957901;28;20206;-67
2021/12/02 14:04:20;;;;;;;0.00;0.00;;;;;;;;;;4954894;28;20583;-65
2021/12/02 14:06:47;;;;;;;0.00;0.00;;;;;;;;;;4950506;28;20801;-66
2021/12/02 14:09:16;;;;;;;0.00;0.00;;;;;;;;;;4958326;28;20202;-67
2021/12/02 14:11:44;;;;;;;0.00;0.00;;;;;;;;;;4961750;28;20358;-66
2021/12/02 14:14:18;;;;;;;0.00;0.00;;;;;;;;;;4963700;28;20206;-66
2021/12/02 14:16:46;;;;;;;0.00;0.00;;;;;;;;;;4965685;28;20233;-67
2021/12/02 14:19:15;;;;;;;0.00;0.00;;;;;;;;;;4962924;28;20206;-66
2021/12/02 14:21:43;;;;;;;0.00;0.00;;;;;;;;;;4963705;28;20234;-65
2021/12/02 14:24:11;;;;;;;0.00;0.00;;;;;;;;;;4963661;28;21060;-66
2021/12/02 14:26:38;;;;;;;0.00;0.00;;;;;;;;;;4963785;28;20206;-66
2021/12/02 14:29:05;;;;;;;0.00;0.00;;;;;;;;;;4961678;28;20670;-68
2021/12/02 14:31:36;;;;;;;0.00;0.00;;;;;;;;;;4951098;28;20245;-68
2021/12/02 14:34:05;;;;;;;0.00;0.00;;;;;;;;;;4956216;28;20300;-67
2021/12/02 14:36:42;;;;;;;0.00;0.00;;;;;;;;;;4954997;28;20218;-67
2021/12/02 14:39:10;;;;;;;0.00;0.00;;;;;;;;;;4954344;28;20202;-67
2021/12/02 14:41:41;;;;;;;0.00;0.00;;;;;;;;;;4955863;28;20766;-66
2021/12/02 14:44:11;;;;;;;0.00;0.00;;;;;;;;;;4958926;28;20202;-67
2021/12/02 14:46:40;;;;;;;0.00;0.00;;;;;;;;;;4951666;28;20210;-67
2021/12/02 14:49:12;;;;;;;0.00;0.00;;;;;;;;;;4952909;28;20215;-66
2021/12/02 14:51:47;;;;;;;0.00;0.00;;;;;;;;;;4955098;28;20643;-66
2021/12/02 14:54:15;;;;;;;0.00;0.00;;;;;;;;;;4954271;28;20298;-67
2021/12/02 14:56:44;;;;;;;0.00;0.00;;;;;;;;;;4955504;28;21318;-67
2021/12/02 14:59:14;;;;;;;0.00;0.00;;;;;;;;;;4951153;28;20194;-67
2021/12/02 15:02:12;;;;;;;0.00;0.00;;;;;;;;;;4953937;28;20203;-65
2021/12/02 15:04:49;;;;;;;0.00;0.00;;;;;;;;;;4956763;28;20210;-69
2021/12/02 15:07:18;;;;;;;0.00;0.00;;;;;;;;;;4955463;28;20651;-70